sensor_id;sensor_type;location;lat;lon;timestamp;pressure;altitude;pressure_sealevel;temperature;humidity
72612;BME280;60655;52.182;4.474;2023-05-28T00:01:00;102125.47;;;14.26;84.86
72612;BME280;60655;52.182;4.474;2023-05-28T00:03:04;102136.38;;;14.24;85.17
72612;BME280;60655;52.182;4.474;2023-05-28T00:05:05;102125.47;;;14.19;85.01
72612;BME280;60655;52.182;4.474;2023-05-28T00:07:06;102130.41;;;14.15;84.90
72612;BME280;60655;52.182;4.474;2023-05-28T00:09:07;102128.59;;;14.09;85.34
72612;BME280;60655;52.182;4.474;2023-05-28T00:11:09;102126.75;;;14.10;85.18
72612;BME280;60655;52.182;4.474;2023-05-28T00:13:10;102120.38;;;14.11;85.29
72612;BME280;60655;52.182;4.474;2023-05-28T00:15:11;102110.09;;;14.14;85.33
72612;BME280;60655;52.182;4.474;2023-05-28T00:17:13;102115.44;;;14.14;85.07
72612;BME280;60655;52.182;4.474;2023-05-28T00:19:14;102109.28;;;14.07;85.69
72612;BME280;60655;52.182;4.474;2023-05-28T00:21:15;102107.84;;;14.11;85.46
72612;BME280;60655;52.182;4.474;2023-05-28T00:23:16;102101.47;;;13.99;85.96
72612;BME280;60655;52.182;4.474;2023-05-28T00:25:17;102100.44;;;14.00;86.01
72612;BME280;60655;52.182;4.474;2023-05-28T00:27:18;102105.38;;;14.03;86.51
72612;BME280;60655;52.182;4.474;2023-05-28T00:29:19;102109.91;;;13.96;86.58
72612;BME280;60655;52.182;4.474;2023-05-28T00:31:21;102111.53;;;14.04;86.43
72612;BME280;60655;52.182;4.474;2023-05-28T00:33:22;102105.78;;;13.87;87.39
72612;BME280;60655;52.182;4.474;2023-05-28T00:35:22;102117.28;;;14.01;86.39
72612;BME280;60655;52.182;4.474;2023-05-28T00:37:23;102105.16;;;13.92;87.23
72612;BME280;60655;52.182;4.474;2023-05-28T00:39:24;102100.66;;;13.99;86.77
72612;BME280;60655;52.182;4.474;2023-05-28T00:41:25;102099.41;;;14.08;86.46
72612;BME280;60655;52.182;4.474;2023-05-28T00:43:26;102102.69;;;14.03;86.39
72612;BME280;60655;52.182;4.474;2023-05-28T00:45:27;102105.59;;;13.95;87.03
72612;BME280;60655;52.182;4.474;2023-05-28T00:47:28;102102.91;;;13.89;87.08
72612;BME280;60655;52.182;4.474;2023-05-28T00:49:30;102102.72;;;13.83;87.34
72612;BME280;60655;52.182;4.474;2023-05-28T00:51:34;102105.00;;;13.80;87.17
72612;BME280;60655;52.182;4.474;2023-05-28T00:53:36;102104.16;;;13.79;87.72
72612;BME280;60655;52.182;4.474;2023-05-28T00:55:37;102105.81;;;13.74;87.84
72612;BME280;60655;52.182;4.474;2023-05-28T00:57:38;102101.47;;;13.66;88.72
72612;BME280;60655;52.182;4.474;2023-05-28T00:59:39;102097.81;;;13.80;87.61
72612;BME280;60655;52.182;4.474;2023-05-28T01:01:40;102103.56;;;13.84;87.50
72612;BME280;60655;52.182;4.474;2023-05-28T01:03:42;102113.78;;;13.87;87.25
72612;BME280;60655;52.182;4.474;2023-05-28T01:05:43;102109.50;;;13.73;87.92
72612;BME280;60655;52.182;4.474;2023-05-28T01:07:44;102108.88;;;13.77;87.81
72612;BME280;60655;52.182;4.474;2023-05-28T01:09:45;102111.16;;;13.74;87.96
72612;BME280;60655;52.182;4.474;2023-05-28T01:11:47;102117.91;;;13.63;88.94
72612;BME280;60655;52.182;4.474;2023-05-28T01:13:50;102108.66;;;13.66;89.11
72612;BME280;60655;52.182;4.474;2023-05-28T01:15:51;102106.81;;;13.66;88.46
72612;BME280;60655;52.182;4.474;2023-05-28T01:17:57;102115.66;;;13.67;87.56
72612;BME280;60655;52.182;4.474;2023-05-28T01:19:59;102110.72;;;13.70;87.73
72612;BME280;60655;52.182;4.474;2023-05-28T01:22:12;102108.03;;;13.57;88.65
72612;BME280;60655;52.182;4.474;2023-05-28T01:24:16;102107.25;;;13.57;88.70
72612;BME280;60655;52.182;4.474;2023-05-28T01:26:18;102112.59;;;13.50;89.08
72612;BME280;60655;52.182;4.474;2023-05-28T01:28:20;102111.13;;;13.61;88.12
72612;BME280;60655;52.182;4.474;2023-05-28T01:30:21;102102.09;;;13.48;88.31
72612;BME280;60655;52.182;4.474;2023-05-28T01:32:22;102105.41;;;13.50;88.54
72612;BME280;60655;52.182;4.474;2023-05-28T01:34:23;102108.44;;;13.34;88.91
72612;BME280;60655;52.182;4.474;2023-05-28T01:36:29;102105.78;;;13.41;88.54
72612;BME280;60655;52.182;4.474;2023-05-28T01:38:31;102109.91;;;13.50;88.53
72612;BME280;60655;52.182;4.474;2023-05-28T01:40:34;102106.00;;;13.46;87.85
72612;BME280;60655;52.182;4.474;2023-05-28T01:42:37;102102.72;;;13.44;88.04
72612;BME280;60655;52.182;4.474;2023-05-28T01:44:39;102098.19;;;13.44;87.91
72612;BME280;60655;52.182;4.474;2023-05-28T01:46:43;102091.00;;;13.25;88.59
72612;BME280;60655;52.182;4.474;2023-05-28T01:48:45;102102.47;;;13.32;88.61
72612;BME280;60655;52.182;4.474;2023-05-28T01:50:46;102101.47;;;13.33;88.20
72612;BME280;60655;52.182;4.474;2023-05-28T01:52:49;102095.69;;;13.16;89.73
72612;BME280;60655;52.182;4.474;2023-05-28T01:54:50;102105.16;;;13.32;88.76
72612;BME280;60655;52.182;4.474;2023-05-28T01:56:51;102098.56;;;13.28;89.06
72612;BME280;60655;52.182;4.474;2023-05-28T01:58:52;102104.72;;;13.29;88.54
72612;BME280;60655;52.182;4.474;2023-05-28T02:03:12;102098.59;;;13.22;88.72
72612;BME280;60655;52.182;4.474;2023-05-28T02:05:13;102097.13;;;13.19;88.45
72612;BME280;60655;52.182;4.474;2023-05-28T02:07:14;102105.13;;;13.19;89.23
72612;BME280;60655;52.182;4.474;2023-05-28T02:09:15;102105.38;;;13.24;88.64
72612;BME280;60655;52.182;4.474;2023-05-28T02:11:16;102108.34;;;13.08;88.94
72612;BME280;60655;52.182;4.474;2023-05-28T02:13:17;102098.53;;;13.15;88.94
72612;BME280;60655;52.182;4.474;2023-05-28T02:15:20;102096.88;;;13.14;88.88
72612;BME280;60655;52.182;4.474;2023-05-28T02:17:22;102103.69;;;13.16;88.81
72612;BME280;60655;52.182;4.474;2023-05-28T02:19:23;102103.81;;;13.02;89.76
72612;BME280;60655;52.182;4.474;2023-05-28T02:21:25;102104.81;;;12.88;90.89
72612;BME280;60655;52.182;4.474;2023-05-28T02:23:26;102119.00;;;12.95;89.42
72612;BME280;60655;52.182;4.474;2023-05-28T02:25:27;102113.84;;;12.87;89.85
72612;BME280;60655;52.182;4.474;2023-05-28T02:27:28;102109.69;;;12.77;89.53
72612;BME280;60655;52.182;4.474;2023-05-28T02:29:29;102109.47;;;12.72;90.05
72612;BME280;60655;52.182;4.474;2023-05-28T02:31:30;102110.47;;;12.71;90.22
72612;BME280;60655;52.182;4.474;2023-05-28T02:33:31;102105.09;;;12.58;91.02
72612;BME280;60655;52.182;4.474;2023-05-28T02:35:33;102102.72;;;12.70;90.54
72612;BME280;60655;52.182;4.474;2023-05-28T02:37:35;102090.13;;;12.57;90.44
72612;BME280;60655;52.182;4.474;2023-05-28T02:39:36;102100.59;;;12.59;91.06
72612;BME280;60655;52.182;4.474;2023-05-28T02:41:37;102111.63;;;12.49;91.00
72612;BME280;60655;52.182;4.474;2023-05-28T02:43:38;102112.41;;;12.43;90.83
72612;BME280;60655;52.182;4.474;2023-05-28T02:45:39;102111.81;;;12.47;90.27
72612;BME280;60655;52.182;4.474;2023-05-28T02:47:40;102103.19;;;12.45;90.72
72612;BME280;60655;52.182;4.474;2023-05-28T02:49:41;102102.44;;;12.58;90.30
72612;BME280;60655;52.182;4.474;2023-05-28T02:51:41;102107.78;;;12.58;90.38
72612;BME280;60655;52.182;4.474;2023-05-28T02:53:42;102106.94;;;12.58;89.90
72612;BME280;60655;52.182;4.474;2023-05-28T02:55:43;102102.75;;;12.42;89.93
72612;BME280;60655;52.182;4.474;2023-05-28T02:57:44;102106.88;;;12.44;90.20
72612;BME280;60655;52.182;4.474;2023-05-28T02:59:46;102101.72;;;12.36;90.37
72612;BME280;60655;52.182;4.474;2023-05-28T03:01:47;102099.88;;;12.37;90.89
72612;BME280;60655;52.182;4.474;2023-05-28T03:03:48;102105.06;;;12.51;89.99
72612;BME280;60655;52.182;4.474;2023-05-28T03:05:49;102101.38;;;12.52;89.91
72612;BME280;60655;52.182;4.474;2023-05-28T03:07:51;102105.22;;;12.43;89.83
72612;BME280;60655;52.182;4.474;2023-05-28T03:09:52;102103.56;;;12.42;89.19
72612;BME280;60655;52.182;4.474;2023-05-28T03:11:53;102107.69;;;12.38;90.13
72612;BME280;60655;52.182;4.474;2023-05-28T03:13:54;102109.34;;;12.39;89.79
72612;BME280;60655;52.182;4.474;2023-05-28T03:15:55;102094.56;;;12.43;90.14
72612;BME280;60655;52.182;4.474;2023-05-28T03:17:56;102109.72;;;12.43;89.51
72612;BME280;60655;52.182;4.474;2023-05-28T03:19:57;102107.16;;;12.56;88.78
72612;BME280;60655;52.182;4.474;2023-05-28T03:21:58;102106.91;;;12.51;88.99
72612;BME280;60655;52.182;4.474;2023-05-28T03:23:59;102106.03;;;12.44;90.30
72612;BME280;60655;52.182;4.474;2023-05-28T03:26:00;102106.28;;;12.49;89.60
72612;BME280;60655;52.182;4.474;2023-05-28T03:28:01;102103.63;;;12.49;89.41
72612;BME280;60655;52.182;4.474;2023-05-28T03:30:02;102096.97;;;12.32;89.75
72612;BME280;60655;52.182;4.474;2023-05-28T03:32:04;102097.22;;;12.37;89.69
72612;BME280;60655;52.182;4.474;2023-05-28T03:34:05;102103.03;;;12.54;88.88
72612;BME280;60655;52.182;4.474;2023-05-28T03:36:06;102102.22;;;12.53;89.03
72612;BME280;60655;52.182;4.474;2023-05-28T03:38:08;102100.31;;;12.47;89.31
72612;BME280;60655;52.182;4.474;2023-05-28T03:40:09;102099.84;;;12.30;89.73
72612;BME280;60655;52.182;4.474;2023-05-28T03:42:10;102101.34;;;12.39;89.38
72612;BME280;60655;52.182;4.474;2023-05-28T03:44:11;102110.50;;;12.30;90.15
72612;BME280;60655;52.182;4.474;2023-05-28T03:46:12;102121.41;;;12.35;89.92
72612;BME280;60655;52.182;4.474;2023-05-28T03:48:13;102133.66;;;12.30;90.46
72612;BME280;60655;52.182;4.474;2023-05-28T03:50:14;102132.41;;;12.26;91.39
72612;BME280;60655;52.182;4.474;2023-05-28T03:52:15;102129.19;;;12.37;91.18
72612;BME280;60655;52.182;4.474;2023-05-28T03:54:16;102111.56;;;12.36;90.68
72612;BME280;60655;52.182;4.474;2023-05-28T03:56:17;102117.94;;;12.41;91.06
72612;BME280;60655;52.182;4.474;2023-05-28T03:58:21;102107.69;;;12.38;90.62
72612;BME280;60655;52.182;4.474;2023-05-28T04:00:22;102122.03;;;12.44;90.49
72612;BME280;60655;52.182;4.474;2023-05-28T04:02:23;102112.63;;;12.41;90.67
72612;BME280;60655;52.182;4.474;2023-05-28T04:04:24;102122.84;;;12.44;90.43
72612;BME280;60655;52.182;4.474;2023-05-28T04:06:25;102115.47;;;12.40;90.14
72612;BME280;60655;52.182;4.474;2023-05-28T04:08:26;102124.06;;;12.42;90.47
72612;BME280;60655;52.182;4.474;2023-05-28T04:10:27;102121.25;;;12.50;90.12
72612;BME280;60655;52.182;4.474;2023-05-28T04:12:28;102125.38;;;12.52;90.07
72612;BME280;60655;52.182;4.474;2023-05-28T04:14:29;102119.19;;;12.45;90.04
72612;BME280;60655;52.182;4.474;2023-05-28T04:16:30;102117.19;;;12.54;89.67
72612;BME280;60655;52.182;4.474;2023-05-28T04:18:32;102112.44;;;12.49;89.91
72612;BME280;60655;52.182;4.474;2023-05-28T04:20:33;102116.75;;;12.50;90.20
72612;BME280;60655;52.182;4.474;2023-05-28T04:22:36;102118.56;;;12.43;90.22
72612;BME280;60655;52.182;4.474;2023-05-28T04:24:37;102123.72;;;12.51;89.71
72612;BME280;60655;52.182;4.474;2023-05-28T04:26:38;102115.53;;;12.53;89.52
72612;BME280;60655;52.182;4.474;2023-05-28T04:28:39;102112.44;;;12.49;89.85
72612;BME280;60655;52.182;4.474;2023-05-28T04:30:41;102121.28;;;12.57;90.08
72612;BME280;60655;52.182;4.474;2023-05-28T04:32:42;102130.97;;;12.64;89.76
72612;BME280;60655;52.182;4.474;2023-05-28T04:34:43;102124.88;;;12.77;88.99
72612;BME280;60655;52.182;4.474;2023-05-28T04:36:44;102130.00;;;12.78;89.16
72612;BME280;60655;52.182;4.474;2023-05-28T04:38:45;102128.56;;;12.69;89.69
72612;BME280;60655;52.182;4.474;2023-05-28T04:40:47;102127.28;;;12.65;89.66
72612;BME280;60655;52.182;4.474;2023-05-28T04:42:50;102120.56;;;12.69;89.47
72612;BME280;60655;52.182;4.474;2023-05-28T04:44:54;102126.91;;;12.75;90.18
72612;BME280;60655;52.182;4.474;2023-05-28T04:46:55;102123.81;;;12.71;89.70
72612;BME280;60655;52.182;4.474;2023-05-28T04:48:59;102141.06;;;12.75;90.38
72612;BME280;60655;52.182;4.474;2023-05-28T04:51:00;102132.03;;;12.76;89.88
72612;BME280;60655;52.182;4.474;2023-05-28T04:53:04;102136.63;;;12.89;89.26
72612;BME280;60655;52.182;4.474;2023-05-28T04:55:05;102131.72;;;12.93;89.08
72612;BME280;60655;52.182;4.474;2023-05-28T04:57:06;102140.78;;;13.05;88.53
72612;BME280;60655;52.182;4.474;2023-05-28T04:59:07;102138.50;;;13.02;88.81
72612;BME280;60655;52.182;4.474;2023-05-28T05:01:10;102131.78;;;13.12;88.18
72612;BME280;60655;52.182;4.474;2023-05-28T05:03:11;102141.78;;;13.04;88.57
72612;BME280;60655;52.182;4.474;2023-05-28T05:05:12;102132.03;;;13.17;88.33
72612;BME280;60655;52.182;4.474;2023-05-28T05:07:14;102135.75;;;13.23;87.50
72612;BME280;60655;52.182;4.474;2023-05-28T05:09:15;102142.09;;;13.22;88.22
72612;BME280;60655;52.182;4.474;2023-05-28T05:11:16;102140.88;;;13.31;87.81
72612;BME280;60655;52.182;4.474;2023-05-28T05:13:17;102137.19;;;13.32;88.05
72612;BME280;60655;52.182;4.474;2023-05-28T05:15:18;102136.56;;;13.30;88.42
72612;BME280;60655;52.182;4.474;2023-05-28T05:17:19;102127.75;;;13.36;87.98
72612;BME280;60655;52.182;4.474;2023-05-28T05:19:20;102134.53;;;13.45;87.51
72612;BME280;60655;52.182;4.474;2023-05-28T05:21:21;102134.97;;;13.49;87.68
72612;BME280;60655;52.182;4.474;2023-05-28T05:23:23;102138.03;;;13.46;87.49
72612;BME280;60655;52.182;4.474;2023-05-28T05:25:23;102136.81;;;13.62;87.27
72612;BME280;60655;52.182;4.474;2023-05-28T05:27:24;102135.81;;;13.56;87.56
72612;BME280;60655;52.182;4.474;2023-05-28T05:29:25;102141.13;;;13.69;87.25
72612;BME280;60655;52.182;4.474;2023-05-28T05:31:26;102141.16;;;13.76;86.86
72612;BME280;60655;52.182;4.474;2023-05-28T05:33:27;102145.88;;;13.74;87.06
72612;BME280;60655;52.182;4.474;2023-05-28T05:35:28;102143.00;;;13.75;86.58
72612;BME280;60655;52.182;4.474;2023-05-28T05:37:29;102145.88;;;13.74;86.94
72612;BME280;60655;52.182;4.474;2023-05-28T05:39:30;102143.41;;;13.79;86.52
72612;BME280;60655;52.182;4.474;2023-05-28T05:41:31;102144.63;;;13.76;86.70
72612;BME280;60655;52.182;4.474;2023-05-28T05:43:32;102153.88;;;13.74;87.01
72612;BME280;60655;52.182;4.474;2023-05-28T05:45:33;102144.63;;;13.76;86.57
72612;BME280;60655;52.182;4.474;2023-05-28T05:47:34;102148.56;;;13.80;86.92
72612;BME280;60655;52.182;4.474;2023-05-28T05:49:35;102147.91;;;13.92;86.63
72612;BME280;60655;52.182;4.474;2023-05-28T05:51:36;102133.31;;;14.01;86.29
72612;BME280;60655;52.182;4.474;2023-05-28T05:53:40;102147.06;;;14.17;85.78
72612;BME280;60655;52.182;4.474;2023-05-28T05:55:42;102138.22;;;14.24;85.19
72612;BME280;60655;52.182;4.474;2023-05-28T05:57:43;102143.78;;;14.22;84.70
72612;BME280;60655;52.182;4.474;2023-05-28T05:59:46;102144.59;;;14.29;84.99
72612;BME280;60655;52.182;4.474;2023-05-28T06:01:47;102143.78;;;14.42;84.62
72612;BME280;60655;52.182;4.474;2023-05-28T06:03:48;102144.38;;;14.50;84.73
72612;BME280;60655;52.182;4.474;2023-05-28T06:05:49;102137.94;;;14.71;83.25
72612;BME280;60655;52.182;4.474;2023-05-28T06:07:51;102137.94;;;14.71;82.28
72612;BME280;60655;52.182;4.474;2023-05-28T06:09:52;102144.00;;;14.98;81.70
72612;BME280;60655;52.182;4.474;2023-05-28T06:11:53;102143.91;;;15.11;81.17
72612;BME280;60655;52.182;4.474;2023-05-28T06:13:53;102145.16;;;15.09;81.50
72612;BME280;60655;52.182;4.474;2023-05-28T06:15:54;102141.34;;;15.30;80.87
72612;BME280;60655;52.182;4.474;2023-05-28T06:17:56;102135.13;;;15.36;79.74
72612;BME280;60655;52.182;4.474;2023-05-28T06:19:58;102139.16;;;15.51;79.59
72612;BME280;60655;52.182;4.474;2023-05-28T06:22:00;102131.25;;;15.63;79.53
72612;BME280;60655;52.182;4.474;2023-05-28T06:24:01;102125.41;;;15.73;78.96
72612;BME280;60655;52.182;4.474;2023-05-28T06:26:02;102133.84;;;15.76;79.40
72612;BME280;60655;52.182;4.474;2023-05-28T06:28:04;102132.31;;;15.87;78.62
72612;BME280;60655;52.182;4.474;2023-05-28T06:30:05;102139.53;;;15.86;78.83
72612;BME280;60655;52.182;4.474;2023-05-28T06:32:06;102152.13;;;15.86;77.81
72612;BME280;60655;52.182;4.474;2023-05-28T06:34:07;102135.53;;;15.96;77.46
72612;BME280;60655;52.182;4.474;2023-05-28T06:36:09;102131.97;;;16.02;76.72
72612;BME280;60655;52.182;4.474;2023-05-28T06:38:10;102129.00;;;16.10;77.10
72612;BME280;60655;52.182;4.474;2023-05-28T06:40:11;102141.16;;;16.31;76.77
72612;BME280;60655;52.182;4.474;2023-05-28T06:42:12;102138.94;;;16.28;76.33
72612;BME280;60655;52.182;4.474;2023-05-28T06:44:13;102140.03;;;16.20;76.43
72612;BME280;60655;52.182;4.474;2023-05-28T06:46:14;102139.97;;;16.27;75.90
72612;BME280;60655;52.182;4.474;2023-05-28T06:48:15;102141.59;;;16.28;74.99
72612;BME280;60655;52.182;4.474;2023-05-28T06:50:16;102137.34;;;16.20;75.61
72612;BME280;60655;52.182;4.474;2023-05-28T06:52:17;102141.94;;;16.38;75.41
72612;BME280;60655;52.182;4.474;2023-05-28T06:54:19;102140.16;;;16.68;74.36
72612;BME280;60655;52.182;4.474;2023-05-28T06:56:20;102140.84;;;16.64;74.37
72612;BME280;60655;52.182;4.474;2023-05-28T06:58:22;102140.88;;;16.57;74.21
72612;BME280;60655;52.182;4.474;2023-05-28T07:00:23;102144.38;;;16.76;73.57
72612;BME280;60655;52.182;4.474;2023-05-28T07:02:24;102145.81;;;16.78;72.93
72612;BME280;60655;52.182;4.474;2023-05-28T07:04:27;102147.03;;;16.64;72.24
72612;BME280;60655;52.182;4.474;2023-05-28T07:06:28;102151.88;;;16.74;72.47
72612;BME280;60655;52.182;4.474;2023-05-28T07:08:29;102138.56;;;16.79;72.78
72612;BME280;60655;52.182;4.474;2023-05-28T07:10:30;102148.03;;;17.00;72.25
72612;BME280;60655;52.182;4.474;2023-05-28T07:12:31;102151.81;;;17.10;71.04
72612;BME280;60655;52.182;4.474;2023-05-28T07:14:32;102155.22;;;17.17;70.04
72612;BME280;60655;52.182;4.474;2023-05-28T07:16:33;102159.63;;;17.12;70.47
72612;BME280;60655;52.182;4.474;2023-05-28T07:18:34;102148.50;;;17.38;70.49
72612;BME280;60655;52.182;4.474;2023-05-28T07:20:35;102146.56;;;17.45;69.45
72612;BME280;60655;52.182;4.474;2023-05-28T07:22:36;102149.59;;;17.49;69.75
72612;BME280;60655;52.182;4.474;2023-05-28T07:24:37;102158.28;;;17.63;70.20
72612;BME280;60655;52.182;4.474;2023-05-28T07:26:38;102152.56;;;17.59;69.96
72612;BME280;60655;52.182;4.474;2023-05-28T07:28:39;102156.94;;;17.83;69.49
72612;BME280;60655;52.182;4.474;2023-05-28T07:30:43;102161.63;;;17.88;69.27
72612;BME280;60655;52.182;4.474;2023-05-28T07:32:44;102161.16;;;17.91;69.58
72612;BME280;60655;52.182;4.474;2023-05-28T07:34:45;102163.50;;;17.99;68.79
72612;BME280;60655;52.182;4.474;2023-05-28T07:36:46;102164.34;;;18.11;67.08
72612;BME280;60655;52.182;4.474;2023-05-28T07:38:47;102167.25;;;18.21;66.72
72612;BME280;60655;52.182;4.474;2023-05-28T07:40:49;102160.81;;;18.22;66.45
72612;BME280;60655;52.182;4.474;2023-05-28T07:42:51;102167.38;;;18.38;67.55
72612;BME280;60655;52.182;4.474;2023-05-28T07:44:52;102168.88;;;18.46;67.52
72612;BME280;60655;52.182;4.474;2023-05-28T07:46:53;102159.97;;;18.69;67.45
72612;BME280;60655;52.182;4.474;2023-05-28T07:48:54;102165.06;;;18.82;66.50
72612;BME280;60655;52.182;4.474;2023-05-28T07:50:55;102173.50;;;18.85;64.81
72612;BME280;60655;52.182;4.474;2023-05-28T07:52:56;102164.25;;;18.93;63.74
72612;BME280;60655;52.182;4.474;2023-05-28T07:54:57;102167.03;;;18.98;63.38
72612;BME280;60655;52.182;4.474;2023-05-28T07:56:59;102166.97;;;19.10;62.80
72612;BME280;60655;52.182;4.474;2023-05-28T07:59:01;102176.56;;;19.17;63.30
72612;BME280;60655;52.182;4.474;2023-05-28T08:01:02;102175.81;;;19.05;63.57
72612;BME280;60655;52.182;4.474;2023-05-28T08:03:03;102171.50;;;19.21;62.28
72612;BME280;60655;52.182;4.474;2023-05-28T08:05:04;102165.53;;;19.19;61.87
72612;BME280;60655;52.182;4.474;2023-05-28T08:07:05;102166.25;;;18.86;62.83
72612;BME280;60655;52.182;4.474;2023-05-28T08:09:07;102163.16;;;18.66;63.38
72612;BME280;60655;52.182;4.474;2023-05-28T08:11:08;102168.41;;;18.61;65.16
72612;BME280;60655;52.182;4.474;2023-05-28T08:13:11;102170.34;;;18.77;64.82
72612;BME280;60655;52.182;4.474;2023-05-28T08:15:12;102169.72;;;18.98;64.05
72612;BME280;60655;52.182;4.474;2023-05-28T08:17:13;102173.97;;;18.94;63.26
72612;BME280;60655;52.182;4.474;2023-05-28T08:19:14;102168.78;;;19.04;63.33
72612;BME280;60655;52.182;4.474;2023-05-28T08:21:15;102176.78;;;18.87;62.79
72612;BME280;60655;52.182;4.474;2023-05-28T08:23:16;102171.75;;;18.79;63.65
72612;BME280;60655;52.182;4.474;2023-05-28T08:25:17;102162.53;;;18.75;64.63
72612;BME280;60655;52.182;4.474;2023-05-28T08:27:18;102172.56;;;18.92;64.02
72612;BME280;60655;52.182;4.474;2023-05-28T08:29:19;102175.47;;;18.90;63.63
72612;BME280;60655;52.182;4.474;2023-05-28T08:31:20;102177.22;;;18.96;63.21
72612;BME280;60655;52.182;4.474;2023-05-28T08:33:23;102167.78;;;18.82;64.60
72612;BME280;60655;52.182;4.474;2023-05-28T08:35:24;102165.13;;;18.70;62.94
72612;BME280;60655;52.182;4.474;2023-05-28T08:37:26;102174.75;;;18.43;64.87
72612;BME280;60655;52.182;4.474;2023-05-28T08:39:27;102161.25;;;18.54;64.54
72612;BME280;60655;52.182;4.474;2023-05-28T08:41:28;102170.13;;;18.78;64.06
72612;BME280;60655;52.182;4.474;2023-05-28T08:43:30;102165.91;;;18.82;63.44
72612;BME280;60655;52.182;4.474;2023-05-28T08:45:33;102158.41;;;18.84;63.95
72612;BME280;60655;52.182;4.474;2023-05-28T08:47:36;102167.06;;;18.86;64.35
72612;BME280;60655;52.182;4.474;2023-05-28T08:49:40;102173.09;;;19.05;63.48
72612;BME280;60655;52.182;4.474;2023-05-28T08:51:42;102180.88;;;18.90;62.47
72612;BME280;60655;52.182;4.474;2023-05-28T08:53:47;102172.38;;;19.10;63.07
72612;BME280;60655;52.182;4.474;2023-05-28T08:55:48;102164.25;;;18.93;61.46
72612;BME280;60655;52.182;4.474;2023-05-28T08:57:49;102170.31;;;19.00;62.83
72612;BME280;60655;52.182;4.474;2023-05-28T08:59:52;102164.84;;;19.12;61.55
72612;BME280;60655;52.182;4.474;2023-05-28T09:01:55;102167.75;;;19.22;60.88
72612;BME280;60655;52.182;4.474;2023-05-28T09:03:56;102165.97;;;19.28;60.73
72612;BME280;60655;52.182;4.474;2023-05-28T09:05:57;102164.09;;;19.28;61.16
72612;BME280;60655;52.182;4.474;2023-05-28T09:07:58;102169.59;;;19.33;60.80
72612;BME280;60655;52.182;4.474;2023-05-28T09:09:59;102165.19;;;19.44;59.89
72612;BME280;60655;52.182;4.474;2023-05-28T09:12:04;102175.16;;;19.43;59.85
72612;BME280;60655;52.182;4.474;2023-05-28T09:14:12;102164.50;;;19.37;60.43
72612;BME280;60655;52.182;4.474;2023-05-28T09:16:21;102170.81;;;19.42;59.60
72612;BME280;60655;52.182;4.474;2023-05-28T09:18:22;102171.03;;;19.52;58.80
72612;BME280;60655;52.182;4.474;2023-05-28T09:20:24;102174.88;;;19.57;58.08
72612;BME280;60655;52.182;4.474;2023-05-28T09:22:28;102165.00;;;19.62;57.86
72612;BME280;60655;52.182;4.474;2023-05-28T09:24:30;102163.53;;;19.88;57.56
72612;BME280;60655;52.182;4.474;2023-05-28T09:26:34;102167.88;;;19.89;56.07
72612;BME280;60655;52.182;4.474;2023-05-28T09:28:35;102171.88;;;19.86;55.23
72612;BME280;60655;52.182;4.474;2023-05-28T09:30:36;102175.78;;;19.79;54.84
72612;BME280;60655;52.182;4.474;2023-05-28T09:32:38;102172.47;;;19.88;56.18
72612;BME280;60655;52.182;4.474;2023-05-28T09:34:41;102175.72;;;20.07;53.37
72612;BME280;60655;52.182;4.474;2023-05-28T09:36:43;102169.66;;;19.83;54.02
72612;BME280;60655;52.182;4.474;2023-05-28T09:38:44;102171.47;;;19.78;53.44
72612;BME280;60655;52.182;4.474;2023-05-28T09:40:45;102156.19;;;19.83;54.60
72612;BME280;60655;52.182;4.474;2023-05-28T09:42:50;102162.63;;;20.16;52.54
72612;BME280;60655;52.182;4.474;2023-05-28T09:44:52;102164.19;;;20.50;51.72
72612;BME280;60655;52.182;4.474;2023-05-28T09:46:53;102173.06;;;20.46;51.55
72612;BME280;60655;52.182;4.474;2023-05-28T09:48:54;102161.13;;;20.42;50.55
72612;BME280;60655;52.182;4.474;2023-05-28T09:50:55;102159.19;;;20.59;51.06
72612;BME280;60655;52.182;4.474;2023-05-28T09:52:58;102163.72;;;20.75;50.96
72612;BME280;60655;52.182;4.474;2023-05-28T09:55:02;102147.06;;;20.62;50.65
72612;BME280;60655;52.182;4.474;2023-05-28T09:57:07;102147.31;;;20.60;51.53
72612;BME280;60655;52.182;4.474;2023-05-28T09:59:12;102159.56;;;20.89;51.62
72612;BME280;60655;52.182;4.474;2023-05-28T10:01:15;102159.44;;;21.01;50.52
72612;BME280;60655;52.182;4.474;2023-05-28T10:03:24;102147.56;;;21.02;50.17
72612;BME280;60655;52.182;4.474;2023-05-28T10:05:33;102144.72;;;20.92;48.82
72612;BME280;60655;52.182;4.474;2023-05-28T10:07:35;102148.13;;;21.04;49.13
72612;BME280;60655;52.182;4.474;2023-05-28T10:09:39;102152.28;;;21.17;50.64
72612;BME280;60655;52.182;4.474;2023-05-28T10:11:42;102156.81;;;21.33;50.51
72612;BME280;60655;52.182;4.474;2023-05-28T10:13:45;102155.91;;;21.22;49.86
72612;BME280;60655;52.182;4.474;2023-05-28T10:15:48;102158.50;;;21.17;49.63
72612;BME280;60655;52.182;4.474;2023-05-28T10:17:49;102152.19;;;21.07;49.55
72612;BME280;60655;52.182;4.474;2023-05-28T10:19:51;102160.47;;;21.22;50.23
72612;BME280;60655;52.182;4.474;2023-05-28T10:21:52;102142.50;;;21.33;50.03
72612;BME280;60655;52.182;4.474;2023-05-28T10:23:54;102172.31;;;21.43;49.29
72612;BME280;60655;52.182;4.474;2023-05-28T10:25:56;102151.16;;;21.13;48.92
72612;BME280;60655;52.182;4.474;2023-05-28T10:28:00;102158.50;;;20.90;49.46
72612;BME280;60655;52.182;4.474;2023-05-28T10:30:04;102150.31;;;21.07;48.61
72612;BME280;60655;52.182;4.474;2023-05-28T10:32:05;102165.19;;;21.10;49.54
72612;BME280;60655;52.182;4.474;2023-05-28T10:34:14;102159.66;;;21.21;49.28
72612;BME280;60655;52.182;4.474;2023-05-28T10:36:17;102151.78;;;21.20;49.12
72612;BME280;60655;52.182;4.474;2023-05-28T10:38:18;102157.53;;;21.23;49.03